createdAt,value
2023-02-01T00:00:59.337Z,93.50
2023-02-01T00:03:25.841Z,93.37
2023-02-01T00:05:59.001Z,93.60
2023-02-01T00:08:25.456Z,93.65
2023-02-01T00:11:18.289Z,93.96
2023-02-01T00:13:44.767Z,94.53
2023-02-01T00:16:19.102Z,94.89
2023-02-01T00:18:46.446Z,95.05
2023-02-01T00:21:13.629Z,95.73
2023-02-01T00:23:40.142Z,95.70
2023-02-01T00:26:07.804Z,96.52
2023-02-01T00:28:34.287Z,97.00
2023-02-01T00:31:02.023Z,96.58
2023-02-01T00:33:29.355Z,97.00
2023-02-01T00:36:04.193Z,98.17
2023-02-01T00:38:31.354Z,97.83
2023-02-01T00:41:04.867Z,97.81
2023-02-01T00:43:32.078Z,98.10
2023-02-01T00:45:58.633Z,97.68
2023-02-01T00:48:25.339Z,97.28
2023-02-01T00:50:52.218Z,97.45
2023-02-01T00:53:18.723Z,97.61
2023-02-01T00:55:48.673Z,97.33
2023-02-01T00:58:15.433Z,97.57
2023-02-01T01:00:42.135Z,97.50
2023-02-01T01:03:18.567Z,97.61
2023-02-01T01:05:49.335Z,97.86
2023-02-01T01:08:16.772Z,97.68
2023-02-01T01:10:43.763Z,97.24
2023-02-01T01:13:10.542Z,97.32
2023-02-01T01:15:40.607Z,97.42
2023-02-01T01:18:07.154Z,97.37
2023-02-01T01:20:37.889Z,97.20
2023-02-01T01:23:04.946Z,96.89
2023-02-01T01:25:31.569Z,97.01
2023-02-01T01:27:58.059Z,96.49
2023-02-01T01:30:24.927Z,96.46
2023-02-01T01:32:52.955Z,96.55
2023-02-01T01:35:19.531Z,97.01
2023-02-01T01:37:45.976Z,96.59
2023-02-01T01:40:12.614Z,96.61
2023-02-01T01:42:39.694Z,96.39
2023-02-01T01:45:09.346Z,96.42
2023-02-01T01:47:41.305Z,97.10
2023-02-01T01:50:11.341Z,97.65
2023-02-01T01:52:38.527Z,97.50
2023-02-01T01:55:05.658Z,97.63
2023-02-01T01:57:34.493Z,97.27
2023-02-01T02:00:03.740Z,96.96
2023-02-01T02:02:30.341Z,97.44
2023-02-01T02:04:56.998Z,97.48
2023-02-01T02:07:29.676Z,96.81
2023-02-01T02:10:01.054Z,96.72
2023-02-01T02:12:28.012Z,96.66
2023-02-01T02:14:54.907Z,96.70
2023-02-01T02:17:27.480Z,96.45
2023-02-01T02:20:14.162Z,96.45
2023-02-01T02:22:43.660Z,96.49
2023-02-01T02:25:28.853Z,95.92
2023-02-01T02:28:01.296Z,95.76
2023-02-01T02:30:42.988Z,95.17
2023-02-01T02:33:12.440Z,95.11
2023-02-01T02:35:48.283Z,94.66
2023-02-01T02:38:33.299Z,94.41
2023-02-01T02:41:39.946Z,94.08
2023-02-01T02:44:31.247Z,94.08
2023-02-01T02:47:19.791Z,94.08
2023-02-01T02:50:11.957Z,93.58
2023-02-01T02:53:01.864Z,93.44
2023-02-01T02:55:29.588Z,93.54
2023-02-01T02:58:15.787Z,93.70
2023-02-01T03:01:01.674Z,93.08
2023-02-01T03:03:46.977Z,92.84
2023-02-01T03:06:16.843Z,93.56
2023-02-01T03:08:46.184Z,92.83
2023-02-01T03:11:16.238Z,93.67
2023-02-01T03:13:52.011Z,93.43
2023-02-01T03:16:29.472Z,94.20
2023-02-01T03:19:03.225Z,94.74
2023-02-01T03:21:36.509Z,97.20
2023-02-01T03:24:05.081Z,96.50
2023-02-01T03:26:32.339Z,96.82
2023-02-01T03:29:03.451Z,97.34
2023-02-01T03:31:30.149Z,97.15
2023-02-01T03:33:56.782Z,95.46
2023-02-01T03:36:27.845Z,95.24
2023-02-01T03:39:00.580Z,93.00
2023-02-01T03:41:36.326Z,92.43
2023-02-01T03:44:08.215Z,92.34
2023-02-01T03:46:37.156Z,92.45
2023-02-01T03:49:06.671Z,93.16
2023-02-01T03:51:34.083Z,93.23
2023-02-01T03:54:02.684Z,92.07
2023-02-01T03:56:30.523Z,93.33
2023-02-01T03:59:00.200Z,92.92
2023-02-01T04:01:27.904Z,92.41
2023-02-01T04:03:54.587Z,92.17
2023-02-01T04:06:21.373Z,91.63
2023-02-01T04:08:48.115Z,91.08
2023-02-01T04:11:14.783Z,90.56
2023-02-01T04:13:41.245Z,90.24
2023-02-01T04:16:07.718Z,88.94
2023-02-01T04:18:34.167Z,89.16
2023-02-01T04:21:02.153Z,88.93
2023-02-01T04:23:28.973Z,88.59
2023-02-01T04:25:59.538Z,88.96
2023-02-01T04:28:26.020Z,89.17
2023-02-01T04:30:52.518Z,88.80
2023-02-01T04:33:18.973Z,88.54
2023-02-01T04:35:45.485Z,88.51
2023-02-01T04:38:12.161Z,88.16
2023-02-01T04:40:38.868Z,88.83
2023-02-01T04:43:05.483Z,88.91
2023-02-01T04:45:31.953Z,88.92
2023-02-01T04:47:58.374Z,88.95
2023-02-01T04:50:25.261Z,88.81
2023-02-01T04:52:51.741Z,89.06
2023-02-01T04:55:18.236Z,89.81
2023-02-01T04:57:44.708Z,90.41
2023-02-01T05:00:11.544Z,90.78
2023-02-01T05:02:38.729Z,89.18
2023-02-01T05:05:05.533Z,89.20
2023-02-01T05:07:31.939Z,88.99
2023-02-01T05:09:58.445Z,88.68
2023-02-01T05:12:43.524Z,88.16
2023-02-01T05:15:10.021Z,87.84
2023-02-01T05:17:36.477Z,87.22
2023-02-01T05:20:03.021Z,87.10
2023-02-01T05:22:29.458Z,87.45
2023-02-01T05:24:55.934Z,87.38
2023-02-01T05:27:22.472Z,86.92
2023-02-01T05:29:48.899Z,85.67
2023-02-01T05:32:23.378Z,84.89
2023-02-01T05:34:50.339Z,85.69
2023-02-01T05:37:16.872Z,85.68
2023-02-01T05:39:43.308Z,86.94
2023-02-01T05:42:09.863Z,87.71
2023-02-01T05:44:36.290Z,88.33
2023-02-01T05:47:02.748Z,88.99
2023-02-01T05:49:29.320Z,90.03
2023-02-01T05:51:55.736Z,90.81
2023-02-01T05:54:22.187Z,91.01
2023-02-01T05:56:48.621Z,92.20
2023-02-01T05:59:15.081Z,92.24
2023-02-01T06:01:41.627Z,93.05
2023-02-01T06:04:08.133Z,92.88
2023-02-01T06:06:35.160Z,93.55
2023-02-01T06:09:01.792Z,93.75
2023-02-01T06:11:33.071Z,93.94
2023-02-01T06:14:00.385Z,93.53
2023-02-01T06:16:27.305Z,93.38
2023-02-01T06:18:55.025Z,93.12
2023-02-01T06:21:25.012Z,92.52
2023-02-01T06:23:52.215Z,92.61
2023-02-01T06:26:19.201Z,92.75
2023-02-01T06:28:45.683Z,93.09
2023-02-01T06:31:12.947Z,92.38
2023-02-01T06:33:41.518Z,91.68
2023-02-01T06:36:08.630Z,92.09
2023-02-01T06:38:35.879Z,91.97
2023-02-01T06:41:03.282Z,91.68
2023-02-01T06:43:29.743Z,91.55
2023-02-01T06:46:00.471Z,91.50
2023-02-01T06:48:26.980Z,91.32
2023-02-01T06:50:53.520Z,91.60
2023-02-01T06:53:20.076Z,91.04
2023-02-01T06:55:53.326Z,91.55
2023-02-01T06:58:19.787Z,91.67
2023-02-01T07:00:46.286Z,92.04
2023-02-01T07:03:12.774Z,91.63
2023-02-01T07:05:39.197Z,91.60
2023-02-01T07:08:05.654Z,91.64
2023-02-01T07:10:32.074Z,91.73
2023-02-01T07:12:58.961Z,91.69
2023-02-01T07:15:25.547Z,91.75
2023-02-01T07:17:52.019Z,92.22
2023-02-01T07:20:18.555Z,92.61
2023-02-01T07:22:44.970Z,92.79
2023-02-01T07:25:11.387Z,92.94
2023-02-01T07:27:38.123Z,93.35
2023-02-01T07:30:05.444Z,92.85
2023-02-01T07:32:31.978Z,92.83
2023-02-01T07:34:59.014Z,92.94
2023-02-01T07:37:25.609Z,92.71
2023-02-01T07:39:52.268Z,93.50
2023-02-01T07:42:19.202Z,93.07
2023-02-01T07:44:45.723Z,93.22
2023-02-01T07:47:12.412Z,93.60
2023-02-01T07:49:38.862Z,94.51
2023-02-01T07:52:05.342Z,94.32
2023-02-01T07:54:31.780Z,95.01
2023-02-01T07:56:58.257Z,94.26
2023-02-01T07:59:24.689Z,94.56
2023-02-01T08:01:51.138Z,94.02
2023-02-01T08:04:17.630Z,93.97
2023-02-01T08:06:44.151Z,93.37
2023-02-01T08:09:11.857Z,93.73
2023-02-01T08:11:39.040Z,93.46
2023-02-01T08:14:06.955Z,93.94
2023-02-01T08:16:35.195Z,93.70
2023-02-01T08:19:01.928Z,92.97
2023-02-01T08:21:38.221Z,93.05
2023-02-01T08:24:05.540Z,92.52
2023-02-01T08:26:32.025Z,92.28
2023-02-01T08:29:00.679Z,92.17
2023-02-01T08:31:27.970Z,91.79
2023-02-01T08:33:56.216Z,92.08
2023-02-01T08:36:23.841Z,92.04
2023-02-01T08:38:50.871Z,91.85
2023-02-01T08:41:18.923Z,92.61
2023-02-01T08:43:45.944Z,92.38
2023-02-01T08:46:12.922Z,92.18
2023-02-01T08:48:39.699Z,92.47
2023-02-01T08:51:07.709Z,92.35
2023-02-01T08:53:34.133Z,93.00
2023-02-01T08:56:00.616Z,92.55
2023-02-01T08:58:27.345Z,93.09
2023-02-01T09:00:53.845Z,93.68
2023-02-01T09:03:20.387Z,93.33
2023-02-01T09:05:49.661Z,94.10
2023-02-01T09:08:16.684Z,93.88
2023-02-01T09:10:43.318Z,93.78
2023-02-01T09:13:10.283Z,93.54
2023-02-01T09:15:37.895Z,92.81
2023-02-01T09:18:04.631Z,92.36
2023-02-01T09:20:31.140Z,92.02
2023-02-01T09:22:57.610Z,91.75
2023-02-01T09:25:24.283Z,92.04
2023-02-01T09:27:50.843Z,91.80
2023-02-01T09:30:17.386Z,91.39
2023-02-01T09:32:43.911Z,91.42
2023-02-01T09:35:10.386Z,90.58
2023-02-01T09:37:38.497Z,90.27
2023-02-01T09:40:05.255Z,90.44
2023-02-01T09:42:43.727Z,90.25
2023-02-01T09:45:12.933Z,89.65
2023-02-01T09:47:41.128Z,89.95
2023-02-01T09:50:15.593Z,89.81
2023-02-01T09:52:45.154Z,89.80
2023-02-01T09:55:17.412Z,89.69
2023-02-01T09:57:58.887Z,89.63
2023-02-01T10:00:30.937Z,89.51
2023-02-01T10:02:57.557Z,89.66
2023-02-01T10:05:52.659Z,89.76
2023-02-01T10:08:27.297Z,89.75
2023-02-01T10:10:58.015Z,89.17
2023-02-01T10:13:43.132Z,87.83
2023-02-01T10:16:12.677Z,88.52
2023-02-01T10:18:50.925Z,88.23
2023-02-01T10:21:28.686Z,88.53
2023-02-01T10:24:16.084Z,88.40
2023-02-01T10:26:45.973Z,87.53
2023-02-01T10:29:23.780Z,87.98
2023-02-01T10:31:50.324Z,88.15
2023-02-01T10:34:27.121Z,87.95
2023-02-01T10:36:58.295Z,87.38
2023-02-01T10:39:25.263Z,87.56
2023-02-01T10:41:51.989Z,87.18
2023-02-01T10:44:20.667Z,87.52
2023-02-01T10:46:47.205Z,87.75
2023-02-01T10:49:43.228Z,87.04
2023-02-01T10:52:13.528Z,87.00
2023-02-01T10:54:40.483Z,87.51
2023-02-01T10:57:11.377Z,87.21
2023-02-01T10:59:38.531Z,86.85
2023-02-01T11:02:21.634Z,86.95
2023-02-01T11:04:48.186Z,86.49
2023-02-01T11:07:20.488Z,86.28
2023-02-01T11:09:51.421Z,85.18
2023-02-01T11:12:33.266Z,86.02
2023-02-01T11:15:02.217Z,85.77
2023-02-01T11:17:31.585Z,84.63
2023-02-01T11:19:59.542Z,84.95
2023-02-01T11:22:26.888Z,83.35
2023-02-01T11:24:53.521Z,84.00
2023-02-01T11:27:27.670Z,83.90
2023-02-01T11:29:57.475Z,83.06
2023-02-01T11:32:24.730Z,82.24
2023-02-01T11:34:56.596Z,83.09
2023-02-01T11:37:25.942Z,83.10
2023-02-01T11:39:55.107Z,83.53
2023-02-01T11:42:21.926Z,82.97
2023-02-01T11:44:48.941Z,81.99
2023-02-01T11:47:22.768Z,82.66
2023-02-01T11:49:50.777Z,82.29
2023-02-01T11:52:23.269Z,83.27
2023-02-01T11:54:49.694Z,82.63
2023-02-01T11:57:19.187Z,82.98
2023-02-01T11:59:56.238Z,83.97
2023-02-01T12:02:42.257Z,85.24
2023-02-01T12:05:27.587Z,86.70
2023-02-01T12:08:12.864Z,87.32
2023-02-01T12:10:45.286Z,87.84
2023-02-01T12:13:30.565Z,88.25
2023-02-01T12:16:05.970Z,88.10
2023-02-01T12:18:38.296Z,88.24
2023-02-01T12:21:07.212Z,87.99
2023-02-01T12:24:09.499Z,87.92
2023-02-01T12:26:48.716Z,88.31
2023-02-01T12:29:27.571Z,88.07
2023-02-01T12:32:00.480Z,87.48
2023-02-01T12:34:26.979Z,87.81
2023-02-01T12:36:53.380Z,87.82
2023-02-01T12:39:22.841Z,87.57
2023-02-01T12:42:05.100Z,88.31
2023-02-01T12:44:34.607Z,88.50
2023-02-01T12:47:05.595Z,87.69
2023-02-01T12:49:50.258Z,88.26
2023-02-01T12:52:21.257Z,88.78
2023-02-01T12:54:51.483Z,88.87
2023-02-01T12:57:27.111Z,88.53
2023-02-01T13:00:07.663Z,88.19
2023-02-01T13:02:43.685Z,88.56
2023-02-01T13:05:18.693Z,88.08
2023-02-01T13:07:50.969Z,88.23
2023-02-01T13:10:17.516Z,87.78
2023-02-01T13:12:55.621Z,87.56
2023-02-01T13:15:42.750Z,86.99
2023-02-01T13:18:14.450Z,87.15
2023-02-01T13:21:01.140Z,87.49
2023-02-01T13:23:27.864Z,87.22
2023-02-01T13:25:54.996Z,87.88
2023-02-01T13:28:26.779Z,87.87
2023-02-01T13:30:59.381Z,87.70
2023-02-01T13:33:53.434Z,87.48
2023-02-01T13:36:25.464Z,87.56
2023-02-01T13:38:51.965Z,87.24
2023-02-01T13:41:27.832Z,88.04
2023-02-01T13:43:57.036Z,87.50
2023-02-01T13:46:23.847Z,86.97
2023-02-01T13:48:52.393Z,87.11
2023-02-01T13:51:48.148Z,86.72
2023-02-01T13:54:29.737Z,86.69
2023-02-01T13:56:56.691Z,85.85
2023-02-01T13:59:41.303Z,86.72
2023-02-01T14:02:26.504Z,86.78
2023-02-01T14:04:52.938Z,86.08
2023-02-01T14:07:20.384Z,85.84
2023-02-01T14:09:47.060Z,85.70
2023-02-01T14:12:32.016Z,85.37
2023-02-01T14:15:17.239Z,85.30
2023-02-01T14:17:43.807Z,85.68
2023-02-01T14:20:29.164Z,85.54
2023-02-01T14:23:05.328Z,85.57
2023-02-01T14:25:35.184Z,85.15
2023-02-01T14:28:02.447Z,85.40
2023-02-01T14:30:28.938Z,85.35
2023-02-01T14:32:55.451Z,85.46
2023-02-01T14:35:27.097Z,85.42
2023-02-01T14:37:55.110Z,85.21
2023-02-01T14:40:26.013Z,86.12
2023-02-01T14:42:55.772Z,85.68
2023-02-01T14:45:26.120Z,86.18
2023-02-01T14:47:52.850Z,86.41
2023-02-01T14:50:41.973Z,86.30
2023-02-01T14:53:14.090Z,86.57
2023-02-01T14:55:50.529Z,86.32
2023-02-01T14:58:29.082Z,86.32
2023-02-01T15:00:57.060Z,86.93
2023-02-01T15:03:26.545Z,86.67
2023-02-01T15:05:58.153Z,86.92
2023-02-01T15:08:29.541Z,87.11
2023-02-01T15:10:57.407Z,86.53
2023-02-01T15:13:25.651Z,86.86
2023-02-01T15:16:24.732Z,87.19
2023-02-01T15:18:51.325Z,86.70
2023-02-01T15:21:28.231Z,87.21
2023-02-01T15:24:12.057Z,86.87
2023-02-01T15:26:38.622Z,87.16
2023-02-01T15:29:05.079Z,87.02
2023-02-01T15:31:36.019Z,86.96
2023-02-01T15:34:02.653Z,87.12
2023-02-01T15:36:29.897Z,87.71
2023-02-01T15:39:19.364Z,87.73
2023-02-01T15:41:47.909Z,87.26
2023-02-01T15:44:33.311Z,88.09
2023-02-01T15:47:00.757Z,87.86
2023-02-01T15:49:29.323Z,88.26
2023-02-01T15:51:56.596Z,87.84
2023-02-01T15:54:28.737Z,88.33
2023-02-01T15:56:56.872Z,88.41
2023-02-01T15:59:26.037Z,87.86
2023-02-01T16:01:52.732Z,88.44
2023-02-01T16:04:21.678Z,88.76
2023-02-01T16:06:50.152Z,88.62
2023-02-01T16:09:18.108Z,89.00
2023-02-01T16:11:49.063Z,88.64
2023-02-01T16:14:15.907Z,89.46
2023-02-01T16:16:42.456Z,89.11
2023-02-01T16:19:08.921Z,89.79
2023-02-01T16:21:35.385Z,90.03
2023-02-01T16:24:04.893Z,90.40
2023-02-01T16:26:32.760Z,90.80
2023-02-01T16:28:59.899Z,91.10
2023-02-01T16:31:28.667Z,91.07
2023-02-01T16:33:55.181Z,91.94
2023-02-01T16:36:22.535Z,91.63
2023-02-01T16:38:50.541Z,92.00
2023-02-01T16:41:18.370Z,92.54
2023-02-01T16:43:45.489Z,92.91
2023-02-01T16:46:16.934Z,93.29
2023-02-01T16:48:47.014Z,93.18
2023-02-01T16:51:14.951Z,93.41
2023-02-01T16:53:53.384Z,94.30
2023-02-01T16:56:22.236Z,94.46
2023-02-01T16:58:48.721Z,94.93
2023-02-01T17:01:16.281Z,96.29
2023-02-01T17:03:44.189Z,97.00
2023-02-01T17:06:11.855Z,97.13
2023-02-01T17:08:42.647Z,96.29
2023-02-01T17:11:10.237Z,97.11
2023-02-01T17:13:37.141Z,98.05
2023-02-01T17:16:23.969Z,97.97
2023-02-01T17:18:58.445Z,97.85
2023-02-01T17:21:26.851Z,97.93
2023-02-01T17:23:53.847Z,98.23
2023-02-01T17:26:20.407Z,99.38
2023-02-01T17:28:46.901Z,99.97
2023-02-01T17:31:14.809Z,99.60
2023-02-01T17:33:41.711Z,99.53
2023-02-01T17:36:12.346Z,98.82
2023-02-01T17:38:38.789Z,99.24
2023-02-01T17:41:05.298Z,99.04
2023-02-01T17:43:31.785Z,99.16
2023-02-01T17:46:06.986Z,98.48
2023-02-01T17:48:33.547Z,98.61
2023-02-01T17:51:00.887Z,98.59
2023-02-01T17:53:28.274Z,98.28
2023-02-01T17:55:56.812Z,98.18
2023-02-01T17:58:23.528Z,98.32
2023-02-01T18:00:50.347Z,97.97
2023-02-01T18:03:30.279Z,97.86
2023-02-01T18:05:57.768Z,98.29
2023-02-01T18:08:25.593Z,98.18
2023-02-01T18:10:54.419Z,97.96
2023-02-01T18:13:21.396Z,98.80
2023-02-01T18:15:48.366Z,98.19
2023-02-01T18:18:14.894Z,98.29
2023-02-01T18:20:43.573Z,97.94
2023-02-01T18:23:14.448Z,98.03
2023-02-01T18:25:41.065Z,98.09
2023-02-01T18:28:07.523Z,97.77
2023-02-01T18:30:34.508Z,97.75
2023-02-01T18:33:01.056Z,98.17
2023-02-01T18:35:28.768Z,98.08
2023-02-01T18:37:58.622Z,98.05
2023-02-01T18:40:33.087Z,97.43
2023-02-01T18:42:59.957Z,96.85
2023-02-01T18:45:36.891Z,96.87
2023-02-01T18:48:04.155Z,96.58
2023-02-01T18:50:31.533Z,96.05
2023-02-01T18:52:59.528Z,95.85
2023-02-01T18:55:26.789Z,96.02
2023-02-01T18:57:53.573Z,95.56
2023-02-01T19:00:21.037Z,95.08
2023-02-01T19:02:48.221Z,94.61
2023-02-01T19:05:14.998Z,94.36
2023-02-01T19:07:42.832Z,94.13
2023-02-01T19:10:11.612Z,93.94
2023-02-01T19:12:39.091Z,94.02
2023-02-01T19:15:07.146Z,93.03
2023-02-01T19:17:33.761Z,93.30
2023-02-01T19:20:00.413Z,93.88
2023-02-01T19:22:27.303Z,93.84
2023-02-01T19:24:54.784Z,93.55
2023-02-01T19:27:21.593Z,92.90
2023-02-01T19:29:48.214Z,93.04
2023-02-01T19:32:14.762Z,93.20
2023-02-01T19:34:41.215Z,92.56
2023-02-01T19:37:07.831Z,92.62
2023-02-01T19:39:34.314Z,92.30
2023-02-01T19:42:02.243Z,91.83
2023-02-01T19:44:29.844Z,91.79
2023-02-01T19:46:56.449Z,91.96
2023-02-01T19:49:22.896Z,91.79
2023-02-01T19:51:49.343Z,92.07
2023-02-01T19:54:16.287Z,91.51
2023-02-01T19:56:43.746Z,91.87
2023-02-01T19:59:11.344Z,91.96
2023-02-01T20:01:38.223Z,91.80
2023-02-01T20:04:06.463Z,91.44
2023-02-01T20:06:33.913Z,91.75
2023-02-01T20:09:00.549Z,91.82
2023-02-01T20:11:27.049Z,92.34
2023-02-01T20:13:53.980Z,92.43
2023-02-01T20:16:21.132Z,92.82
2023-02-01T20:18:47.883Z,93.43
2023-02-01T20:21:15.131Z,93.64
2023-02-01T20:23:41.922Z,93.46
2023-02-01T20:26:11.321Z,92.78
2023-02-01T20:28:38.572Z,93.01
2023-02-01T20:31:05.595Z,92.08
2023-02-01T20:33:32.252Z,92.32
2023-02-01T20:35:58.856Z,91.87
2023-02-01T20:38:25.486Z,91.40
2023-02-01T20:40:51.926Z,91.35
2023-02-01T20:43:18.998Z,91.93
2023-02-01T20:45:45.441Z,92.65
2023-02-01T20:48:12.240Z,92.49
2023-02-01T20:50:38.853Z,91.91
2023-02-01T20:53:05.322Z,92.10
2023-02-01T20:55:31.911Z,92.14
2023-02-01T20:57:58.327Z,91.94
2023-02-01T21:00:24.836Z,92.39
2023-02-01T21:02:51.398Z,92.16
2023-02-01T21:05:17.940Z,91.99
2023-02-01T21:07:44.506Z,92.08
2023-02-01T21:10:11.560Z,92.48
2023-02-01T21:12:38.147Z,92.48
2023-02-01T21:15:05.343Z,92.55
2023-02-01T21:17:32.410Z,92.04
2023-02-01T21:19:59.108Z,92.67
2023-02-01T21:22:25.607Z,92.56
2023-02-01T21:24:52.062Z,92.95
2023-02-01T21:27:18.535Z,92.45
2023-02-01T21:29:44.991Z,92.03
2023-02-01T21:32:11.516Z,92.26
2023-02-01T21:34:37.925Z,92.20
2023-02-01T21:37:04.356Z,92.87
2023-02-01T21:39:30.839Z,92.37
2023-02-01T21:42:16.723Z,92.30
2023-02-01T21:44:46.227Z,92.10
2023-02-01T21:47:13.239Z,92.05
2023-02-01T21:49:39.771Z,91.77
2023-02-01T21:52:06.640Z,91.67
2023-02-01T21:54:33.169Z,91.41
2023-02-01T21:56:59.605Z,90.75
2023-02-01T21:59:26.019Z,90.59
2023-02-01T22:01:52.469Z,90.68
2023-02-01T22:04:18.981Z,90.72
2023-02-01T22:06:46.025Z,90.76
2023-02-01T22:09:24.963Z,90.58
2023-02-01T22:11:52.151Z,90.78
2023-02-01T22:14:19.114Z,90.86
2023-02-01T22:16:46.179Z,91.34
2023-02-01T22:19:12.917Z,91.58
2023-02-01T22:21:41.898Z,91.57
2023-02-01T22:24:09.652Z,91.29
2023-02-01T22:26:36.335Z,91.75
2023-02-01T22:29:03.128Z,91.80
2023-02-01T22:31:29.685Z,91.83
2023-02-01T22:33:56.936Z,91.07
2023-02-01T22:36:25.243Z,90.87
2023-02-01T22:38:52.638Z,90.90
2023-02-01T22:41:19.850Z,91.57
2023-02-01T22:43:46.887Z,91.32
2023-02-01T22:46:14.637Z,90.93
2023-02-01T22:48:41.978Z,91.11
2023-02-01T22:51:11.926Z,90.96
2023-02-01T22:53:38.426Z,91.12
2023-02-01T22:56:06.449Z,90.85
2023-02-01T22:58:35.917Z,90.94
2023-02-01T23:01:09.120Z,91.14
2023-02-01T23:03:36.514Z,91.00
2023-02-01T23:06:03.295Z,91.63
2023-02-01T23:08:29.750Z,91.35
2023-02-01T23:11:00.041Z,91.34
2023-02-01T23:13:26.562Z,91.24
2023-02-01T23:15:53.167Z,92.09
2023-02-01T23:18:19.729Z,92.30
2023-02-01T23:20:46.199Z,93.10
2023-02-01T23:23:12.631Z,92.90
2023-02-01T23:25:39.060Z,93.15
2023-02-01T23:28:05.548Z,93.53
2023-02-01T23:30:32.060Z,93.51
2023-02-01T23:32:58.637Z,93.71
2023-02-01T23:35:25.492Z,93.47
2023-02-01T23:37:52.095Z,93.18
2023-02-01T23:40:18.676Z,92.75
2023-02-01T23:43:05.282Z,92.91
2023-02-01T23:45:31.712Z,93.08
2023-02-01T23:47:58.125Z,92.88
2023-02-01T23:50:24.609Z,93.06
2023-02-01T23:52:51.018Z,93.25
2023-02-01T23:55:19.610Z,92.67
2023-02-01T23:57:46.049Z,92.50
